YAMBYBNA

Guest
Details From YAMB - Amberley Military
To YBNA - Ballina
Flight Number -
Tags Generated
Created
Modified
Stats Distance 85 nm / 157 km
Max Altitude 0 ft / 0 m
Waypoints 2
Social Downloads 5
Likes 0
Share VATSIM

Download

Looking for another format? Having issues loading an existing format? Contact us
Advertisement - Login to hide

Notes

Generated

Route

YAMB YBNA

ID Type Via Altitude Latitude Longitude Leg Dist Tot Dist Heading (true) Name
O YAMB APT - 0 ft / 0 m -27.63508˚ 152.71299˚ - 0 nm - Amberley Military
O YBNA APT - 0 ft / 0 m -28.83577˚ 153.55176˚ 84 nm 84 nm 149° / 148° -

Altitude Profile

Advertisement - Login to hide

YAMB

Details ICAO YAMB
Name Amberley Military
Region Australia
Timezone Australia/Brisbane (UTC+10.0)
Stats Elevation 87 ft / 27 m (AMSL)
Location -27.636913° 152.712608°
Runways 4
Magnetic Variation 10.945° E

METAR

YAMB 150400Z AUTO 07008KT 9999 // NCD 31/17 Q1010

Decode

TAF

TAF YAMB 142304Z 1500/1518 08006KT 9999 SCT035 FM150400 06013KT CAVOK FM151000 08007KT 9999 FEW030 PROB30 1516/1518 2000 BR

Decode

Departure Runways

ID Width Length Bearing (true) Bearing (mag) Surface Threshold Offset Overrun Length
04 151 ft / 46 m 4,999 ft / 1,524 m 54.22° 43.27° Asphalt 0 ft / 0 m 0 ft / 0 m
10 115 ft / 35 m 1,562 ft / 476 m 102.96° 92.01° Grass 0 ft / 0 m 0 ft / 0 m
15 151 ft / 46 m 10,483 ft / 3,195 m 158.90° 147.95° Asphalt 207 ft / 63 m 0 ft / 0 m
15R 112 ft / 34 m 2,263 ft / 690 m 158.81° 147.86° Grass 0 ft / 0 m 0 ft / 0 m
22 151 ft / 46 m 4,999 ft / 1,524 m 234.22° 223.27° Asphalt 0 ft / 0 m 0 ft / 0 m
28 115 ft / 35 m 1,562 ft / 476 m 282.96° 272.01° Grass 0 ft / 0 m 0 ft / 0 m
33 151 ft / 46 m 10,483 ft / 3,195 m 338.90° 327.95° Asphalt 253 ft / 77 m 0 ft / 0 m
33L 112 ft / 34 m 2,263 ft / 690 m 338.81° 327.86° Grass 0 ft / 0 m 0 ft / 0 m

YBNA

Details ICAO YBNA (BNK)
Name Ballina/Byron Gateway
Region Australia
Timezone Australia/Sydney (UTC+11.0)
Stats Elevation 6 ft / 2 m (AMSL)
Location -28.833306° 153.561207°
Runways 1
Magnetic Variation 11.556° E

METAR

YBNA 150400Z AUTO 03016KT 9999 // NCD 27/19 Q1011

Decode

TAF

Not found

Destination Runways

ID Width Length Bearing (true) Bearing (mag) Surface Threshold Offset Overrun Length
06 98 ft / 30 m 6,241 ft / 1,902 m 73.50° 61.94° Asphalt 0 ft / 0 m 0 ft / 0 m
24 98 ft / 30 m 6,241 ft / 1,902 m 253.50° 241.94° Asphalt 0 ft / 0 m 0 ft / 0 m